sensor_id;sensor_type;location;lat;lon;timestamp;P1;durP1;ratioP1;P2;durP2;ratioP2
48873;SDS011;66155;46.204;5.220;2023-02-28T00:01:52;6.90;;;5.05;;
48873;SDS011;66155;46.204;5.220;2023-02-28T00:06:53;5.82;;;5.20;;
48873;SDS011;66155;46.204;5.220;2023-02-28T00:11:53;6.20;;;5.03;;
48873;SDS011;66155;46.204;5.220;2023-02-28T00:16:54;6.38;;;4.95;;
48873;SDS011;66155;46.204;5.220;2023-02-28T00:21:54;7.10;;;5.20;;
48873;SDS011;66155;46.204;5.220;2023-02-28T00:26:55;8.23;;;5.40;;
48873;SDS011;66155;46.204;5.220;2023-02-28T00:31:55;7.15;;;5.82;;
48873;SDS011;66155;46.204;5.220;2023-02-28T00:36:56;9.15;;;5.57;;
48873;SDS011;66155;46.204;5.220;2023-02-28T00:41:56;7.78;;;5.07;;
48873;SDS011;66155;46.204;5.220;2023-02-28T00:46:57;8.18;;;5.22;;
48873;SDS011;66155;46.204;5.220;2023-02-28T00:51:58;8.98;;;5.00;;
48873;SDS011;66155;46.204;5.220;2023-02-28T00:56:59;11.82;;;5.43;;
48873;SDS011;66155;46.204;5.220;2023-02-28T01:01:59;8.65;;;5.57;;
48873;SDS011;66155;46.204;5.220;2023-02-28T01:07:00;7.43;;;4.80;;
48873;SDS011;66155;46.204;5.220;2023-02-28T01:12:01;11.70;;;6.28;;
48873;SDS011;66155;46.204;5.220;2023-02-28T01:17:01;9.48;;;5.95;;
48873;SDS011;66155;46.204;5.220;2023-02-28T01:22:02;7.72;;;5.68;;
48873;SDS011;66155;46.204;5.220;2023-02-28T01:27:04;13.90;;;6.70;;
48873;SDS011;66155;46.204;5.220;2023-02-28T01:32:04;12.13;;;7.75;;
48873;SDS011;66155;46.204;5.220;2023-02-28T01:37:05;10.48;;;7.45;;
48873;SDS011;66155;46.204;5.220;2023-02-28T01:42:05;11.75;;;7.78;;
48873;SDS011;66155;46.204;5.220;2023-02-28T01:47:09;10.32;;;7.05;;
48873;SDS011;66155;46.204;5.220;2023-02-28T01:52:09;11.65;;;6.57;;
48873;SDS011;66155;46.204;5.220;2023-02-28T01:57:18;13.88;;;7.68;;
48873;SDS011;66155;46.204;5.220;2023-02-28T02:02:24;10.38;;;7.28;;
48873;SDS011;66155;46.204;5.220;2023-02-28T02:07:25;13.15;;;8.25;;
48873;SDS011;66155;46.204;5.220;2023-02-28T02:12:40;8.05;;;6.50;;
48873;SDS011;66155;46.204;5.220;2023-02-28T02:18:02;9.60;;;7.78;;
48873;SDS011;66155;46.204;5.220;2023-02-28T02:28:46;11.40;;;6.78;;
48873;SDS011;66155;46.204;5.220;2023-02-28T02:39:17;12.05;;;6.78;;
48873;SDS011;66155;46.204;5.220;2023-02-28T02:44:26;12.68;;;7.22;;
48873;SDS011;66155;46.204;5.220;2023-02-28T02:49:32;14.77;;;8.07;;
48873;SDS011;66155;46.204;5.220;2023-02-28T02:54:35;11.90;;;7.20;;
48873;SDS011;66155;46.204;5.220;2023-02-28T02:59:38;11.57;;;6.97;;
48873;SDS011;66155;46.204;5.220;2023-02-28T03:04:45;11.18;;;6.93;;
48873;SDS011;66155;46.204;5.220;2023-02-28T03:09:52;14.32;;;7.25;;
48873;SDS011;66155;46.204;5.220;2023-02-28T03:25:31;10.40;;;6.80;;
48873;SDS011;66155;46.204;5.220;2023-02-28T03:30:45;12.13;;;6.60;;
48873;SDS011;66155;46.204;5.220;2023-02-28T03:36:08;12.77;;;7.13;;
48873;SDS011;66155;46.204;5.220;2023-02-28T03:41:14;11.10;;;7.00;;
48873;SDS011;66155;46.204;5.220;2023-02-28T03:46:20;9.83;;;7.83;;
48873;SDS011;66155;46.204;5.220;2023-02-28T03:51:25;15.48;;;7.38;;
48873;SDS011;66155;46.204;5.220;2023-02-28T03:56:39;15.52;;;7.10;;
48873;SDS011;66155;46.204;5.220;2023-02-28T04:01:44;11.68;;;7.50;;
48873;SDS011;66155;46.204;5.220;2023-02-28T04:06:49;12.43;;;7.55;;
48873;SDS011;66155;46.204;5.220;2023-02-28T04:11:51;8.88;;;6.00;;
48873;SDS011;66155;46.204;5.220;2023-02-28T04:16:52;21.92;;;8.95;;
48873;SDS011;66155;46.204;5.220;2023-02-28T04:21:53;14.10;;;7.68;;
48873;SDS011;66155;46.204;5.220;2023-02-28T04:26:54;15.07;;;7.15;;
48873;SDS011;66155;46.204;5.220;2023-02-28T04:31:56;10.95;;;6.90;;
48873;SDS011;66155;46.204;5.220;2023-02-28T04:36:58;12.95;;;7.50;;
48873;SDS011;66155;46.204;5.220;2023-02-28T04:42:00;10.88;;;7.03;;
48873;SDS011;66155;46.204;5.220;2023-02-28T04:47:00;10.65;;;7.85;;
48873;SDS011;66155;46.204;5.220;2023-02-28T04:52:01;13.23;;;7.72;;
48873;SDS011;66155;46.204;5.220;2023-02-28T04:57:02;11.77;;;7.97;;
48873;SDS011;66155;46.204;5.220;2023-02-28T05:02:02;10.13;;;6.70;;
48873;SDS011;66155;46.204;5.220;2023-02-28T05:07:06;9.73;;;6.40;;
48873;SDS011;66155;46.204;5.220;2023-02-28T05:12:08;12.88;;;7.00;;
48873;SDS011;66155;46.204;5.220;2023-02-28T05:17:09;10.95;;;6.93;;
48873;SDS011;66155;46.204;5.220;2023-02-28T05:22:14;10.32;;;7.20;;
48873;SDS011;66155;46.204;5.220;2023-02-28T05:27:16;11.65;;;7.32;;
48873;SDS011;66155;46.204;5.220;2023-02-28T05:32:17;9.07;;;6.88;;
48873;SDS011;66155;46.204;5.220;2023-02-28T05:37:17;11.77;;;7.30;;
48873;SDS011;66155;46.204;5.220;2023-02-28T05:42:18;8.05;;;5.72;;
48873;SDS011;66155;46.204;5.220;2023-02-28T05:47:18;10.68;;;6.18;;
48873;SDS011;66155;46.204;5.220;2023-02-28T05:52:19;8.73;;;6.28;;
48873;SDS011;66155;46.204;5.220;2023-02-28T05:57:19;14.88;;;6.82;;
48873;SDS011;66155;46.204;5.220;2023-02-28T06:02:20;10.02;;;6.55;;
48873;SDS011;66155;46.204;5.220;2023-02-28T06:07:20;10.82;;;6.50;;
48873;SDS011;66155;46.204;5.220;2023-02-28T06:12:22;8.50;;;5.72;;
48873;SDS011;66155;46.204;5.220;2023-02-28T06:17:22;9.63;;;5.82;;
48873;SDS011;66155;46.204;5.220;2023-02-28T06:22:23;8.88;;;6.00;;
48873;SDS011;66155;46.204;5.220;2023-02-28T06:27:23;7.82;;;5.45;;
48873;SDS011;66155;46.204;5.220;2023-02-28T06:32:24;7.88;;;6.47;;
48873;SDS011;66155;46.204;5.220;2023-02-28T06:37:24;11.57;;;6.57;;
48873;SDS011;66155;46.204;5.220;2023-02-28T06:42:26;13.00;;;6.95;;
48873;SDS011;66155;46.204;5.220;2023-02-28T06:47:30;15.63;;;7.15;;
48873;SDS011;66155;46.204;5.220;2023-02-28T06:52:31;14.80;;;6.90;;
48873;SDS011;66155;46.204;5.220;2023-02-28T06:57:31;12.27;;;6.30;;
48873;SDS011;66155;46.204;5.220;2023-02-28T07:02:34;8.10;;;6.20;;
48873;SDS011;66155;46.204;5.220;2023-02-28T07:07:36;12.43;;;7.55;;
48873;SDS011;66155;46.204;5.220;2023-02-28T07:12:38;9.40;;;6.32;;
48873;SDS011;66155;46.204;5.220;2023-02-28T07:17:39;8.98;;;6.28;;
48873;SDS011;66155;46.204;5.220;2023-02-28T07:22:40;11.40;;;6.03;;
48873;SDS011;66155;46.204;5.220;2023-02-28T07:27:41;9.00;;;6.13;;
48873;SDS011;66155;46.204;5.220;2023-02-28T07:32:42;7.00;;;5.85;;
48873;SDS011;66155;46.204;5.220;2023-02-28T07:37:42;7.85;;;5.95;;
48873;SDS011;66155;46.204;5.220;2023-02-28T07:42:43;10.18;;;5.78;;
48873;SDS011;66155;46.204;5.220;2023-02-28T07:47:44;8.18;;;5.45;;
48873;SDS011;66155;46.204;5.220;2023-02-28T07:52:45;8.50;;;5.60;;
48873;SDS011;66155;46.204;5.220;2023-02-28T07:57:46;10.50;;;5.55;;
48873;SDS011;66155;46.204;5.220;2023-02-28T08:02:46;9.23;;;5.68;;
48873;SDS011;66155;46.204;5.220;2023-02-28T08:07:48;10.57;;;5.30;;
48873;SDS011;66155;46.204;5.220;2023-02-28T08:12:49;6.90;;;5.18;;
48873;SDS011;66155;46.204;5.220;2023-02-28T08:17:49;7.78;;;4.90;;
48873;SDS011;66155;46.204;5.220;2023-02-28T08:22:50;7.68;;;5.45;;
48873;SDS011;66155;46.204;5.220;2023-02-28T08:27:51;7.75;;;5.30;;
48873;SDS011;66155;46.204;5.220;2023-02-28T08:32:53;8.88;;;5.43;;
48873;SDS011;66155;46.204;5.220;2023-02-28T08:37:54;9.68;;;5.72;;
48873;SDS011;66155;46.204;5.220;2023-02-28T08:42:54;7.65;;;5.53;;
48873;SDS011;66155;46.204;5.220;2023-02-28T08:47:55;7.95;;;5.55;;
48873;SDS011;66155;46.204;5.220;2023-02-28T08:52:55;6.97;;;4.70;;
48873;SDS011;66155;46.204;5.220;2023-02-28T08:57:56;9.68;;;5.13;;
48873;SDS011;66155;46.204;5.220;2023-02-28T09:02:56;6.88;;;5.43;;
48873;SDS011;66155;46.204;5.220;2023-02-28T09:07:57;9.05;;;6.32;;
48873;SDS011;66155;46.204;5.220;2023-02-28T09:12:57;8.48;;;6.47;;
48873;SDS011;66155;46.204;5.220;2023-02-28T09:17:58;7.38;;;5.40;;
48873;SDS011;66155;46.204;5.220;2023-02-28T09:22:58;7.10;;;4.72;;
48873;SDS011;66155;46.204;5.220;2023-02-28T09:27:59;6.43;;;5.20;;
48873;SDS011;66155;46.204;5.220;2023-02-28T09:33:00;7.22;;;5.55;;
48873;SDS011;66155;46.204;5.220;2023-02-28T09:38:00;7.50;;;6.30;;
48873;SDS011;66155;46.204;5.220;2023-02-28T09:43:03;8.02;;;4.97;;
48873;SDS011;66155;46.204;5.220;2023-02-28T09:48:09;7.50;;;5.63;;
48873;SDS011;66155;46.204;5.220;2023-02-28T09:53:19;6.88;;;5.40;;
48873;SDS011;66155;46.204;5.220;2023-02-28T10:03:40;8.02;;;5.10;;
48873;SDS011;66155;46.204;5.220;2023-02-28T10:08:58;8.93;;;5.45;;
48873;SDS011;66155;46.204;5.220;2023-02-28T10:14:12;6.70;;;5.40;;
48873;SDS011;66155;46.204;5.220;2023-02-28T10:19:18;6.03;;;4.93;;
48873;SDS011;66155;46.204;5.220;2023-02-28T10:24:22;9.05;;;5.68;;
48873;SDS011;66155;46.204;5.220;2023-02-28T10:29:28;7.38;;;5.68;;
48873;SDS011;66155;46.204;5.220;2023-02-28T10:34:32;9.18;;;6.32;;
48873;SDS011;66155;46.204;5.220;2023-02-28T10:39:34;8.48;;;5.30;;
48873;SDS011;66155;46.204;5.220;2023-02-28T10:44:37;9.48;;;5.15;;
48873;SDS011;66155;46.204;5.220;2023-02-28T10:49:38;6.82;;;5.13;;
48873;SDS011;66155;46.204;5.220;2023-02-28T10:54:47;8.80;;;5.70;;
48873;SDS011;66155;46.204;5.220;2023-02-28T10:59:51;6.70;;;5.82;;
48873;SDS011;66155;46.204;5.220;2023-02-28T11:04:55;8.90;;;5.40;;
48873;SDS011;66155;46.204;5.220;2023-02-28T11:09:56;5.63;;;4.93;;
48873;SDS011;66155;46.204;5.220;2023-02-28T11:15:00;7.10;;;5.22;;
48873;SDS011;66155;46.204;5.220;2023-02-28T11:20:05;10.30;;;5.93;;
48873;SDS011;66155;46.204;5.220;2023-02-28T11:25:09;6.55;;;5.13;;
48873;SDS011;66155;46.204;5.220;2023-02-28T11:51:02;8.68;;;5.78;;
48873;SDS011;66155;46.204;5.220;2023-02-28T11:56:13;8.57;;;5.70;;
48873;SDS011;66155;46.204;5.220;2023-02-28T12:28:42;15.05;;;5.90;;
48873;SDS011;66155;46.204;5.220;2023-02-28T12:34:01;9.05;;;6.00;;
48873;SDS011;66155;46.204;5.220;2023-02-28T12:39:08;8.52;;;6.38;;
48873;SDS011;66155;46.204;5.220;2023-02-28T12:44:17;12.75;;;7.68;;
48873;SDS011;66155;46.204;5.220;2023-02-28T12:49:39;7.45;;;6.35;;
48873;SDS011;66155;46.204;5.220;2023-02-28T12:59:58;10.05;;;6.90;;
48873;SDS011;66155;46.204;5.220;2023-02-28T13:21:08;8.85;;;6.13;;
48873;SDS011;66155;46.204;5.220;2023-02-28T13:31:31;8.48;;;6.57;;
48873;SDS011;66155;46.204;5.220;2023-02-28T13:36:34;11.85;;;7.13;;
48873;SDS011;66155;46.204;5.220;2023-02-28T13:47:21;7.50;;;6.25;;
48873;SDS011;66155;46.204;5.220;2023-02-28T14:08:25;8.63;;;6.57;;
48873;SDS011;66155;46.204;5.220;2023-02-28T14:13:42;8.70;;;7.28;;
48873;SDS011;66155;46.204;5.220;2023-02-28T14:19:00;10.05;;;8.43;;
48873;SDS011;66155;46.204;5.220;2023-02-28T14:34:50;9.45;;;7.40;;
48873;SDS011;66155;46.204;5.220;2023-02-28T14:39:54;8.63;;;7.03;;
48873;SDS011;66155;46.204;5.220;2023-02-28T14:44:56;8.75;;;7.85;;
48873;SDS011;66155;46.204;5.220;2023-02-28T14:49:58;11.55;;;7.55;;
48873;SDS011;66155;46.204;5.220;2023-02-28T14:55:01;12.23;;;7.22;;
48873;SDS011;66155;46.204;5.220;2023-02-28T15:00:13;9.90;;;8.07;;
48873;SDS011;66155;46.204;5.220;2023-02-28T15:05:26;10.18;;;7.45;;
48873;SDS011;66155;46.204;5.220;2023-02-28T15:10:31;9.50;;;7.43;;
48873;SDS011;66155;46.204;5.220;2023-02-28T15:20:49;10.57;;;7.53;;
48873;SDS011;66155;46.204;5.220;2023-02-28T15:25:51;11.48;;;7.15;;
48873;SDS011;66155;46.204;5.220;2023-02-28T15:30:58;10.20;;;8.00;;
48873;SDS011;66155;46.204;5.220;2023-02-28T15:41:29;10.88;;;7.43;;
48873;SDS011;66155;46.204;5.220;2023-02-28T15:46:44;8.90;;;7.50;;
48873;SDS011;66155;46.204;5.220;2023-02-28T15:51:55;11.93;;;8.30;;
48873;SDS011;66155;46.204;5.220;2023-02-28T15:57:02;9.32;;;7.82;;
48873;SDS011;66155;46.204;5.220;2023-02-28T16:07:20;13.98;;;8.13;;
48873;SDS011;66155;46.204;5.220;2023-02-28T16:12:22;12.55;;;8.18;;
48873;SDS011;66155;46.204;5.220;2023-02-28T16:17:26;11.80;;;7.63;;
48873;SDS011;66155;46.204;5.220;2023-02-28T16:22:28;9.05;;;6.97;;
48873;SDS011;66155;46.204;5.220;2023-02-28T16:27:33;10.80;;;7.35;;
48873;SDS011;66155;46.204;5.220;2023-02-28T16:32:37;9.10;;;6.68;;
48873;SDS011;66155;46.204;5.220;2023-02-28T16:37:37;9.80;;;7.20;;
48873;SDS011;66155;46.204;5.220;2023-02-28T16:42:38;12.10;;;7.50;;
48873;SDS011;66155;46.204;5.220;2023-02-28T16:47:40;10.77;;;7.75;;
48873;SDS011;66155;46.204;5.220;2023-02-28T16:52:40;13.80;;;7.50;;
48873;SDS011;66155;46.204;5.220;2023-02-28T16:57:41;10.80;;;8.30;;
48873;SDS011;66155;46.204;5.220;2023-02-28T17:02:43;11.00;;;7.05;;
48873;SDS011;66155;46.204;5.220;2023-02-28T17:07:44;11.38;;;8.32;;
48873;SDS011;66155;46.204;5.220;2023-02-28T17:12:45;14.45;;;9.75;;
48873;SDS011;66155;46.204;5.220;2023-02-28T17:17:46;12.45;;;7.32;;
48873;SDS011;66155;46.204;5.220;2023-02-28T17:22:54;12.63;;;8.13;;
48873;SDS011;66155;46.204;5.220;2023-02-28T17:27:56;11.80;;;7.72;;
48873;SDS011;66155;46.204;5.220;2023-02-28T17:32:56;10.02;;;7.53;;
48873;SDS011;66155;46.204;5.220;2023-02-28T17:37:57;11.95;;;8.57;;
48873;SDS011;66155;46.204;5.220;2023-02-28T17:42:57;12.05;;;7.82;;
48873;SDS011;66155;46.204;5.220;2023-02-28T17:47:58;15.63;;;7.75;;
48873;SDS011;66155;46.204;5.220;2023-02-28T17:52:59;12.00;;;7.35;;
48873;SDS011;66155;46.204;5.220;2023-02-28T17:58:00;12.38;;;8.13;;
48873;SDS011;66155;46.204;5.220;2023-02-28T18:03:03;13.55;;;8.02;;
48873;SDS011;66155;46.204;5.220;2023-02-28T18:08:03;16.60;;;8.63;;
48873;SDS011;66155;46.204;5.220;2023-02-28T18:13:04;13.60;;;8.48;;
48873;SDS011;66155;46.204;5.220;2023-02-28T18:18:05;15.13;;;8.32;;
48873;SDS011;66155;46.204;5.220;2023-02-28T18:23:06;15.32;;;9.52;;
48873;SDS011;66155;46.204;5.220;2023-02-28T18:28:07;14.25;;;7.88;;
48873;SDS011;66155;46.204;5.220;2023-02-28T18:33:07;15.80;;;9.73;;
48873;SDS011;66155;46.204;5.220;2023-02-28T18:38:10;14.38;;;8.55;;
48873;SDS011;66155;46.204;5.220;2023-02-28T18:43:15;17.08;;;9.38;;
48873;SDS011;66155;46.204;5.220;2023-02-28T18:48:16;15.73;;;8.32;;
48873;SDS011;66155;46.204;5.220;2023-02-28T18:53:18;10.40;;;7.53;;
48873;SDS011;66155;46.204;5.220;2023-02-28T18:58:19;14.57;;;9.88;;
48873;SDS011;66155;46.204;5.220;2023-02-28T19:03:19;17.30;;;10.65;;
48873;SDS011;66155;46.204;5.220;2023-02-28T19:08:20;13.57;;;8.98;;
48873;SDS011;66155;46.204;5.220;2023-02-28T19:13:20;14.00;;;9.18;;
48873;SDS011;66155;46.204;5.220;2023-02-28T19:18:21;13.52;;;8.85;;
48873;SDS011;66155;46.204;5.220;2023-02-28T19:23:21;16.17;;;9.40;;
48873;SDS011;66155;46.204;5.220;2023-02-28T19:28:21;12.35;;;9.15;;
48873;SDS011;66155;46.204;5.220;2023-02-28T19:33:23;16.27;;;10.57;;
48873;SDS011;66155;46.204;5.220;2023-02-28T19:38:23;16.52;;;10.27;;
48873;SDS011;66155;46.204;5.220;2023-02-28T19:43:24;15.35;;;9.27;;
48873;SDS011;66155;46.204;5.220;2023-02-28T19:48:25;13.55;;;9.68;;
48873;SDS011;66155;46.204;5.220;2023-02-28T19:53:31;15.90;;;10.68;;
48873;SDS011;66155;46.204;5.220;2023-02-28T19:58:32;13.20;;;9.45;;
48873;SDS011;66155;46.204;5.220;2023-02-28T20:03:33;14.43;;;10.77;;
48873;SDS011;66155;46.204;5.220;2023-02-28T20:08:34;14.57;;;9.80;;
48873;SDS011;66155;46.204;5.220;2023-02-28T20:13:36;16.00;;;10.07;;
48873;SDS011;66155;46.204;5.220;2023-02-28T20:18:38;16.73;;;10.48;;
48873;SDS011;66155;46.204;5.220;2023-02-28T20:23:40;15.02;;;10.38;;
48873;SDS011;66155;46.204;5.220;2023-02-28T20:28:42;16.88;;;10.07;;
48873;SDS011;66155;46.204;5.220;2023-02-28T20:33:43;14.73;;;9.43;;
48873;SDS011;66155;46.204;5.220;2023-02-28T20:38:44;17.98;;;10.55;;
48873;SDS011;66155;46.204;5.220;2023-02-28T20:43:45;14.90;;;9.77;;
48873;SDS011;66155;46.204;5.220;2023-02-28T20:48:46;18.02;;;9.80;;
48873;SDS011;66155;46.204;5.220;2023-02-28T20:53:46;16.15;;;11.02;;
48873;SDS011;66155;46.204;5.220;2023-02-28T20:58:47;15.20;;;9.30;;
48873;SDS011;66155;46.204;5.220;2023-02-28T21:03:49;15.95;;;10.60;;
48873;SDS011;66155;46.204;5.220;2023-02-28T21:08:50;17.60;;;10.75;;
48873;SDS011;66155;46.204;5.220;2023-02-28T21:13:52;16.42;;;10.18;;
48873;SDS011;66155;46.204;5.220;2023-02-28T21:18:53;17.00;;;10.90;;
48873;SDS011;66155;46.204;5.220;2023-02-28T21:23:55;18.20;;;10.68;;
48873;SDS011;66155;46.204;5.220;2023-02-28T21:28:56;17.70;;;10.45;;
48873;SDS011;66155;46.204;5.220;2023-02-28T21:33:59;19.08;;;10.48;;
48873;SDS011;66155;46.204;5.220;2023-02-28T21:39:06;17.67;;;10.88;;
48873;SDS011;66155;46.204;5.220;2023-02-28T21:44:13;16.67;;;10.43;;
48873;SDS011;66155;46.204;5.220;2023-02-28T21:49:17;14.02;;;8.85;;
48873;SDS011;66155;46.204;5.220;2023-02-28T21:54:17;19.20;;;11.55;;
48873;SDS011;66155;46.204;5.220;2023-02-28T21:59:18;19.27;;;11.82;;
48873;SDS011;66155;46.204;5.220;2023-02-28T22:04:19;20.27;;;11.80;;
48873;SDS011;66155;46.204;5.220;2023-02-28T22:09:25;18.80;;;11.05;;
48873;SDS011;66155;46.204;5.220;2023-02-28T22:14:25;22.80;;;11.55;;
48873;SDS011;66155;46.204;5.220;2023-02-28T22:19:26;18.15;;;10.32;;
48873;SDS011;66155;46.204;5.220;2023-02-28T22:24:26;17.02;;;10.55;;
48873;SDS011;66155;46.204;5.220;2023-02-28T22:29:27;15.27;;;10.13;;
48873;SDS011;66155;46.204;5.220;2023-02-28T22:34:27;16.33;;;10.30;;
48873;SDS011;66155;46.204;5.220;2023-02-28T22:39:28;20.08;;;11.45;;
48873;SDS011;66155;46.204;5.220;2023-02-28T22:44:29;18.58;;;10.80;;
48873;SDS011;66155;46.204;5.220;2023-02-28T22:49:29;18.17;;;10.63;;
48873;SDS011;66155;46.204;5.220;2023-02-28T22:54:29;17.45;;;10.98;;
48873;SDS011;66155;46.204;5.220;2023-02-28T22:59:30;20.73;;;10.57;;
48873;SDS011;66155;46.204;5.220;2023-02-28T23:04:31;17.52;;;10.52;;
48873;SDS011;66155;46.204;5.220;2023-02-28T23:09:31;17.20;;;9.90;;
48873;SDS011;66155;46.204;5.220;2023-02-28T23:14:32;15.65;;;9.98;;
48873;SDS011;66155;46.204;5.220;2023-02-28T23:19:32;19.02;;;10.15;;
48873;SDS011;66155;46.204;5.220;2023-02-28T23:24:33;21.60;;;10.07;;
48873;SDS011;66155;46.204;5.220;2023-02-28T23:29:35;16.00;;;10.23;;
48873;SDS011;66155;46.204;5.220;2023-02-28T23:34:36;20.67;;;11.52;;
48873;SDS011;66155;46.204;5.220;2023-02-28T23:39:36;15.75;;;9.43;;
48873;SDS011;66155;46.204;5.220;2023-02-28T23:44:37;19.60;;;10.13;;
48873;SDS011;66155;46.204;5.220;2023-02-28T23:49:37;15.90;;;8.82;;
48873;SDS011;66155;46.204;5.220;2023-02-28T23:54:38;14.38;;;9.18;;
48873;SDS011;66155;46.204;5.220;2023-02-28T23:59:39;18.08;;;10.52;;
